Flight Track Log - Related Links

Times and Time Zones

All times are in EDT time to prevent confusion due to time zone crossing. See the N92PK flight status page for this flight to view local times or setup timezone preferences in your user account.

Time Position Orientation Groundspeed Altitude Reporting Facility
EDT Latitude Longitude Course Direction KTS MPH feet Rate Location/Type
Sun 02:03:19 PM 35.0572 -85.1936 335° Northwest 113 130 1,500  Level Memphis Center
Sun 02:04:21 PM 35.0906 -85.1819 16° North 122 140 2,500 1,210 Climbing Memphis Center
Sun 02:05:23 PM 35.1322 -85.1883 353° North 128 147 4,000 1,152 Climbing Memphis Center
Sun 02:06:26 PM 35.1658 -85.2081 334° Northwest 130 150 4,900 912 Climbing Memphis Center
Sun 02:07:28 PM 35.2000 -85.2269 336° Northwest 131 151 5,900 968 Climbing Memphis Center
Sun 02:08:00 PM 35.1936 -85.2749 335° Northwest  Level FlightAware Approximate
Sun 02:08:30 PM 35.2350 -85.2458 336° Northwest 131 151 6,900  Level Memphis Center
Sun 02:09:32 PM 35.2711 -85.2661 335° Northwest 136 157 7,900 532 Climbing Memphis Center
Sun 02:10:34 PM 35.3078 -85.2858 336° Northwest 141 162 8,000 48 Climbing Memphis Center
Sun 02:11:36 PM 35.3581 -85.3144 335° Northwest 160 184 8,000  Level Memphis Center
Sun 02:12:38 PM 35.3983 -85.3356 337° Northwest 160 184 8,000  Level Memphis Center
Sun 02:13:40 PM 35.4369 -85.3581 335° Northwest 157 181 8,000  Level Memphis Center
Sun 02:14:42 PM 35.4781 -85.3806 336° Northwest 157 181 8,000  Level Memphis Center
Sun 02:15:44 PM 35.5189 -85.4022 337° Northwest 158 182 8,000  Level Memphis Center
Sun 02:16:46 PM 35.5600 -85.4256 335° Northwest 159 183 8,000  Level Memphis Center
Sun 02:17:48 PM 35.5997 -85.4475 336° Northwest 159 183 8,000  Level Memphis Center
Sun 02:18:51 PM 35.6481 -85.4747 335° Northwest 159 183 8,000  Level Memphis Center
Sun 02:19:52 PM 35.6872 -85.4964 336° Northwest 158 182 8,000  Level Memphis Center
Sun 02:20:54 PM 35.7286 -85.5189 336° Northwest 158 182 8,000 -48 Level Memphis Center
Sun 02:21:56 PM 35.7681 -85.5422 334° Northwest 158 182 7,900 -48 Descending Memphis Center
Sun 02:22:59 PM 35.8092 -85.5647 336° Northwest 158 182 7,900  Level Memphis Center
Sun 02:24:01 PM 35.8500 -85.5872 336° Northwest 158 182 7,900  Level Memphis Center
Sun 02:25:03 PM 35.8894 -85.6097 335° Northwest 158 182 7,900  Level Memphis Center
Sun 02:26:05 PM 35.9375 -85.6369 335° Northwest 158 182 7,900  Level Memphis Center
Sun 02:27:07 PM 35.9775 -85.6583 337° Northwest 158 182 7,900  Level Memphis Center
Sun 02:28:09 PM 36.0175 -85.6817 335° Northwest 158 182 7,900  Level Memphis Center
Sun 02:29:11 PM 36.0564 -85.7036 335° Northwest 158 182 7,900  Level Memphis Center
Sun 02:30:13 PM 36.0953 -85.7258 335° Northwest 158 182 7,900  Level Memphis Center
Sun 02:31:15 PM 36.1339 -85.7464 337° Northwest 156 180 7,900  Level Memphis Center
Sun 02:32:17 PM 36.1803 -85.7731 335° Northwest 155 178 7,900  Level Memphis Center
Sun 02:33:19 PM 36.2203 -85.7947 336° Northwest 155 178 7,900  Level Memphis Center
Sun 02:34:35 PM 36.2667 -85.8211 335° Northwest 155 178 7,900  Level Indianapolis Center
Sun 02:35:37 PM 36.3053 -85.8425 336° Northwest 154 177 7,900  Level Indianapolis Center
Sun 02:36:39 PM 36.3431 -85.8639 335° Northwest 153 176 7,900 55 Level Indianapolis Center
Sun 02:37:27 PM 36.3744 -85.8817 335° Northwest 150 173 8,000 54 Climbing Memphis Center
Sun 02:38:30 PM 36.4128 -85.9042 335° Northwest 150 173 8,000  Level Memphis Center
Sun 02:39:32 PM 36.4508 -85.9261 335° Northwest 150 173 8,000  Level Memphis Center
Sun 02:40:34 PM 36.4956 -85.9514 336° Northwest 150 173 8,000  Level Memphis Center
Sun 02:41:36 PM 36.5342 -85.9736 335° Northwest 150 173 8,000  Level Memphis Center
Sun 02:42:38 PM 36.5731 -85.9950 336° Northwest 150 173 8,000  Level Memphis Center
Sun 02:43:40 PM 36.6103 -86.0167 335° Northwest 150 173 8,000  Level Memphis Center
Sun 02:44:42 PM 36.6481 -86.0392 334° Northwest 150 173 8,000  Level Memphis Center
Sun 02:45:55 PM 36.6925 -86.0636 336° Northwest 150 173 8,000  Level Indianapolis Center
Sun 02:46:57 PM 36.7369 -86.0889 335° Northwest 150 173 8,000  Level Indianapolis Center
Sun 02:47:59 PM 36.7764 -86.1119 335° Northwest 150 173 8,000  Level Indianapolis Center
Sun 02:48:50 PM 36.8092 -86.1306 336° Northwest 150 173 8,000  Level Memphis Center
Sun 02:49:52 PM 36.8400 -86.1486 335° Northwest 150 173 8,000  Level Memphis Center
Sun 02:50:54 PM 36.8850 -86.1750 335° Northwest 150 173 8,000  Level Memphis Center
Sun 02:51:57 PM 36.9239 -86.1967 336° Northwest 150 173 8,000  Level Memphis Center
Sun 02:52:59 PM 36.9628 -86.2189 335° Northwest 151 174 8,000 -243 Level Memphis Center
Sun 02:58:08 PM 37.1763 -86.3426 335° Northwest 171 197 6,500 -306 Descending FlightAware ADS-B (YPEF)
Sun 02:59:11 PM 37.2144 -86.3661 335° Northwest 168 193 6,100 -288 Descending Memphis Center
Sun 03:00:13 PM 37.2569 -86.3897 336° Northwest 168 193 5,900 -97 Descending Memphis Center
Sun 03:01:15 PM 37.3033 -86.4161 336° Northwest 159 183 5,900 -46 Level Memphis Center
Sun 03:06:44 PM 37.5213 -86.5441 335° Northwest 156 180 5,600 -52 Descending FlightAware ADS-B (YPEF)
Sun 03:07:00 PM 37.5309 -86.5497 335° Northwest 156 180 5,600  Level FlightAware ADS-B (YPEF)
Sun 03:11:29 PM 37.1763 -86.3426 335° Northwest 159 183 5,600 53 Level FlightAware ADS-B
Sun 03:12:38 PM 37.7522 -86.6819 335° Northwest 158 182 5,900 137 Climbing Memphis Center
Sun 03:13:40 PM 37.7922 -86.7044 336° Northwest 158 182 5,900 46 Level Memphis Center
Sun 03:14:49 PM 37.8425 -86.7339 335° Northwest 157 181 6,000 46 Climbing Indianapolis Center
Sun 03:15:51 PM 37.8817 -86.7572 335° Northwest 156 180 6,000  Level Indianapolis Center
Sun 03:16:53 PM 37.9222 -86.7806 336° Northwest 156 180 6,000  Level Indianapolis Center
Sun 03:17:55 PM 37.9619 -86.8042 335° Northwest 157 181 6,000  Level Indianapolis Center
Sun 03:18:57 PM 38.0019 -86.8281 335° Northwest 157 181 6,000  Level Indianapolis Center
Sun 03:19:59 PM 38.0411 -86.8517 335° Northwest 156 180 6,000  Level Indianapolis Center
Sun 03:21:01 PM 38.0797 -86.8744 335° Northwest 156 180 6,000  Level Indianapolis Center
Sun 03:22:03 PM 38.1178 -86.8972 335° Northwest 155 178 6,000  Level Indianapolis Center
Sun 03:23:05 PM 38.1639 -86.9247 335° Northwest 155 178 6,000  Level Indianapolis Center
Sun 03:24:07 PM 38.2019 -86.9478 335° Northwest 155 178 6,000  Level Indianapolis Center
Sun 03:25:09 PM 38.2389 -86.9697 335° Northwest 151 174 6,000  Level Indianapolis Center
Sun 03:26:11 PM 38.2756 -86.9919 335° Northwest 151 174 6,000  Level Indianapolis Center
Sun 03:27:13 PM 38.3114 -87.0128 335° Northwest 148 170 6,000  Level Indianapolis Center
Sun 03:28:15 PM 38.3547 -87.0394 334° Northwest 148 170 6,000  Level Indianapolis Center
Sun 03:29:17 PM 38.3906 -87.0614 334° Northwest 148 170 6,000  Level Indianapolis Center
Sun 03:30:19 PM 38.4278 -87.0836 335° Northwest 148 170 6,000  Level Indianapolis Center
Sun 03:31:21 PM 38.4647 -87.1058 335° Northwest 148 170 6,000  Level Indianapolis Center
Sun 03:32:23 PM 38.5017 -87.1281 335° Northwest 148 170 6,000  Level Indianapolis Center
Sun 03:33:25 PM 38.5381 -87.1506 334° Northwest 147 169 6,000  Level Indianapolis Center
Sun 03:34:27 PM 38.5842 -87.1778 335° Northwest 148 170 6,000  Level Indianapolis Center
Sun 03:35:29 PM 38.6222 -87.2006 335° Northwest 148 170 6,000  Level Indianapolis Center
Sun 03:36:31 PM 38.6589 -87.2239 334° Northwest 148 170 6,000  Level Indianapolis Center
Sun 03:37:33 PM 38.6956 -87.2458 335° Northwest 147 169 6,000  Level Indianapolis Center
Sun 03:38:35 PM 38.7339 -87.2686 335° Northwest 148 170 6,000  Level Indianapolis Center
Sun 03:39:37 PM 38.7717 -87.2917 335° Northwest 148 170 6,000  Level Indianapolis Center
Sun 03:40:39 PM 38.8075 -87.3136 334° Northwest 147 169 6,000  Level Indianapolis Center
Sun 03:41:41 PM 38.8531 -87.3408 335° Northwest 147 169 6,000  Level Indianapolis Center
Sun 03:42:43 PM 38.8908 -87.3642 334° Northwest 147 169 6,000  Level Indianapolis Center
Sun 03:43:45 PM 38.9286 -87.3867 335° Northwest 147 169 6,000  Level Indianapolis Center
Sun 03:44:47 PM 38.9661 -87.4100 334° Northwest 147 169 6,000  Level Indianapolis Center
Sun 03:45:49 PM 39.0033 -87.4342 333° Northwest 148 170 6,000  Level Indianapolis Center
Sun 03:46:52 PM 39.0411 -87.4567 335° Northwest 148 170 6,000  Level Indianapolis Center
Sun 03:47:54 PM 39.0803 -87.4811 334° Northwest 150 173 6,000  Level Indianapolis Center
Sun 03:48:56 PM 39.1203 -87.5056 335° Northwest 153 176 6,000  Level Indianapolis Center
Sun 03:49:58 PM 39.1661 -87.5339 334° Northwest 153 176 6,000  Level Indianapolis Center
Sun 03:51:00 PM 39.2036 -87.5558 336° Northwest 153 176 6,000  Level Indianapolis Center
Sun 03:52:02 PM 39.2428 -87.5806 334° Northwest 153 176 6,000  Level Indianapolis Center
Sun 03:53:04 PM 39.2817 -87.6042 335° Northwest 153 176 6,000  Level Indianapolis Center
Sun 03:54:06 PM 39.3194 -87.6289 333° Northwest 153 176 6,000  Level Indianapolis Center
Sun 03:55:08 PM 39.3589 -87.6522 335° Northwest 153 176 6,000  Level Indianapolis Center
Sun 03:56:10 PM 39.3967 -87.6769 333° Northwest 153 176 6,000  Level Indianapolis Center
Sun 03:57:12 PM 39.4433 -87.7053 335° Northwest 153 176 6,000  Level Indianapolis Center
Sun 03:58:14 PM 39.4819 -87.7297 334° Northwest 153 176 6,000  Level Indianapolis Center
Sun 03:59:16 PM 39.5211 -87.7539 335° Northwest 153 176 6,000  Level Indianapolis Center
Sun 04:00:18 PM 39.5592 -87.7772 335° Northwest 154 177 6,000  Level Indianapolis Center
Sun 04:01:20 PM 39.5983 -87.8031 333° Northwest 154 177 6,000  Level Indianapolis Center
Sun 04:02:22 PM 39.6375 -87.8267 335° Northwest 154 177 6,000  Level Indianapolis Center
Sun 04:03:24 PM 39.6856 -87.8575 334° Northwest 156 180 6,000  Level Indianapolis Center
Sun 04:04:26 PM 39.7253 -87.8817 335° Northwest 156 180 6,000  Level Indianapolis Center
Sun 04:05:28 PM 39.7644 -87.9061 334° Northwest 156 180 6,000  Level Indianapolis Center
Sun 04:06:30 PM 39.8042 -87.9322 333° Northwest 157 181 6,000  Level Indianapolis Center
Sun 04:07:32 PM 39.8444 -87.9569 335° Northwest 157 181 6,000  Level Indianapolis Center
Sun 04:08:34 PM 39.8842 -87.9811 335° Northwest 157 181 6,000  Level Indianapolis Center
Sun 04:09:46 PM 39.9369 -88.0081 339° North 154 177 6,000  Level Chicago Center
Sun 04:10:48 PM 39.9764 -88.0453 324° Northwest 170 196 6,000  Level Chicago Center
Sun 04:11:50 PM 40.0142 -88.0678 335° Northwest 161 185 6,000  Level Chicago Center
Sun 04:12:52 PM 40.0533 -88.0900 337° Northwest 158 182 6,000  Level Chicago Center
Sun 04:13:54 PM 40.0928 -88.1133 336° Northwest 158 182 6,000  Level Chicago Center
Sun 04:14:57 PM 40.1333 -88.1408 333° Northwest 158 182 6,000  Level Chicago Center
Sun 04:15:59 PM 40.1719 -88.1656 334° Northwest 157 181 6,000  Level Chicago Center
Sun 04:17:01 PM 40.2156 -88.1928 335° Northwest 155 178 6,000  Level Chicago Center
Sun 04:18:03 PM 40.2536 -88.2175 334° Northwest 155 178 6,000  Level Chicago Center
Sun 04:19:05 PM 40.2928 -88.2425 334° Northwest 155 178 6,000  Level Chicago Center
Sun 04:20:07 PM 40.3308 -88.2658 335° Northwest 154 177 6,000  Level Chicago Center
Sun 04:21:09 PM 40.3772 -88.2969 333° Northwest 154 177 6,000  Level Chicago Center
Sun 04:22:11 PM 40.4078 -88.3156 335° Northwest 154 177 6,000  Level Chicago Center
Sun 04:23:13 PM 40.4550 -88.3461 334° Northwest 158 182 6,000  Level Chicago Center
Sun 04:24:15 PM 40.4936 -88.3714 334° Northwest 158 182 6,000  Level Chicago Center
Sun 04:25:18 PM 40.5317 -88.3972 333° Northwest 158 182 6,000  Level Chicago Center
Sun 04:26:20 PM 40.5719 -88.4208 336° Northwest 158 182 6,000  Level Chicago Center
Sun 04:27:22 PM 40.6178 -88.4525 332° Northwest 158 182 6,000  Level Chicago Center
Sun 04:28:24 PM 40.6569 -88.4775 334° Northwest 157 181 6,000 48 Level Chicago Center
Sun 04:29:26 PM 40.6964 -88.5019 335° Northwest 157 181 6,100 48 Climbing Chicago Center
Sun 04:30:28 PM 40.7358 -88.5283 333° Northwest 157 181 6,100  Level Chicago Center
Sun 04:31:30 PM 40.7744 -88.5536 334° Northwest 157 181 6,100  Level Chicago Center
Sun 04:32:32 PM 40.8136 -88.5786 334° Northwest 157 181 6,100  Level Chicago Center
Sun 04:33:34 PM 40.8600 -88.6100 333° Northwest 157 181 6,100  Level Chicago Center
Sun 04:34:36 PM 40.8992 -88.6350 334° Northwest 157 181 6,100  Level Chicago Center
Sun 04:35:38 PM 40.9381 -88.6592 335° Northwest 156 180 6,100  Level Chicago Center
Sun 04:36:41 PM 40.9761 -88.6853 333° Northwest 155 178 6,100  Level Chicago Center
Sun 04:37:43 PM 41.0194 -88.7131 334° Northwest 155 178 6,100  Level Chicago Center
Sun 04:38:45 PM 41.0614 -88.7397 334° Northwest 155 178 6,100  Level Chicago Center
Sun 04:39:47 PM 41.0992 -88.7656 333° Northwest 155 178 6,100  Level Chicago Center
Sun 04:40:49 PM 41.1411 -88.7931 334° Northwest 155 178 6,100  Level Chicago Center
Sun 04:41:51 PM 41.1797 -88.8181 334° Northwest 155 178 6,100  Level Chicago Center
Sun 04:42:53 PM 41.2156 -88.8433 332° Northwest 155 178 6,100  Level Chicago Center
Sun 04:43:55 PM 41.2564 -88.8689 335° Northwest 156 180 6,100  Level Chicago Center
Sun 04:44:57 PM 41.2950 -88.8953 333° Northwest 156 180 6,100  Level Chicago Center
Sun 04:45:59 PM 41.3419 -88.9261 334° Northwest 156 180 6,100  Level Chicago Center
Sun 04:47:02 PM 41.3806 -88.9514 334° Northwest 156 180 6,100  Level Chicago Center
Sun 04:48:04 PM 41.4189 -88.9772 333° Northwest 156 180 6,100  Level Chicago Center
Sun 04:49:06 PM 41.4628 -88.9844 353° North 169 194 6,100  Level Chicago Center
Sun 04:50:08 PM 41.5067 -88.9767 North 165 190 6,100 -48 Level Chicago Center
Sun 04:51:10 PM 41.5503 -88.9672 North 164 189 6,000 -48 Descending Chicago Center
Sun 04:52:12 PM 41.6031 -88.9556 North 162 186 6,000  Level Chicago Center
Sun 04:53:14 PM 41.6478 -88.9461 North 162 186 6,000  Level Chicago Center
Sun 04:54:16 PM 41.6925 -88.9364 North 162 186 6,000 -59 Level Chicago Center
Sun 05:00:00 PM 41.9585 -88.8834 360° North 164 189 5,600 -66 Descending FlightAware ADS-B
Sun 05:00:20 PM 41.9734 -88.8833 North 164 189 5,600  Level FlightAware ADS-B
Sun 05:01:00 PM 41.9987 -88.8833 360° North 165 190 5,600  Level FlightAware ADS-B
Sun 05:01:20 PM 42.0188 -88.8832 360° North 165 190 5,600  Level FlightAware ADS-B
Sun 05:01:54 PM 42.0451 -88.8837 359° North 166 191 5,600  Level FlightAware ADS-B
Sun 05:02:31 PM 42.0671 -88.8837 360° North 167 192 5,600  Level FlightAware ADS-B
Sun 05:03:01 PM 42.0943 -88.8838 359° North 165 190 5,600  Level FlightAware ADS-B
Sun 05:03:18 PM 42.1076 -88.8842 360° North 165 190 5,600  Level FlightAware ADS-B
Sun 05:04:34 PM 42.1670 -88.8843 359° North 165 190 5,600  Level FlightAware ADS-B
Sun 05:05:14 PM 42.1986 -88.8844 North 166 191 5,600  Level FlightAware ADS-B
Sun 05:05:33 PM 42.2135 -88.8845 359° North 163 188 5,600  Level FlightAware ADS-B
Sun 05:05:54 PM 42.2278 -88.8849 359° North 164 189 5,600  Level FlightAware ADS-B
Sun 05:06:13 PM 42.2430 -88.8848 North 164 189 5,600  Level FlightAware ADS-B
Sun 05:06:34 PM 42.2580 -88.8846 North 164 189 5,600  Level FlightAware ADS-B
Sun 05:06:43 PM 42.2630 -88.8846 360° North 164 189 5,600  Level FlightAware ADS-B
Sun 05:07:00 PM 42.2792 -88.8848 359° North 164 189 5,600  Level FlightAware ADS-B
Sun 05:07:34 PM 42.3046 -88.8848 North 165 190 5,600  Level FlightAware ADS-B
Sun 05:08:44 PM 42.3547 -88.8849 North 166 191 5,600  Level FlightAware ADS-B
Sun 05:09:11 PM 42.3771 -88.8759 34° Northeast 168 193 5,600  Level FlightAware ADS-B
Sun 05:09:29 PM 42.3891 -88.8659 34° Northeast 168 193 5,600  Level FlightAware ADS-B
Sun 05:09:52 PM 42.4053 -88.8532 30° Northeast 170 196 5,600 293 Level FlightAware ADS-B
Sun 05:10:51 PM 42.4369 -88.8292 30° Northeast 171 197 6,000 -99 Climbing Chicago Center
Sun 05:11:53 PM 42.4883 -88.7872 31° Northeast 174 200 5,400 -484 Descending Chicago Center
Sun 05:12:55 PM 42.5311 -88.7536 30° Northeast 178 205 5,000 -192 Descending Chicago Center
Sun 05:13:58 PM 42.5731 -88.7208 30° Northeast 177 204 5,000  Level Chicago Center
Sun 05:15:00 PM 42.6131 -88.6878 31° Northeast 174 200 5,000  Level Chicago Center
Sun 05:16:02 PM 42.6536 -88.6564 30° Northeast 171 197 5,000  Level Chicago Center
Sun 05:17:04 PM 42.6942 -88.6242 30° Northeast 167 192 5,000  Level Chicago Center
Sun 05:18:06 PM 42.7419 -88.5864 30° Northeast 167 192 5,000  Level Chicago Center
Sun 05:19:08 PM 42.7831 -88.5536 30° Northeast 167 192 5,000  Level Chicago Center
Sun 05:20:10 PM 42.8214 -88.5211 32° Northeast 167 192 5,000  Level Chicago Center
Sun 05:21:12 PM 42.8617 -88.4903 29° Northeast 167 192 5,000  Level Chicago Center
Sun 05:22:14 PM 42.9017 -88.4578 31° Northeast 167 192 5,000 -192 Level Chicago Center
Sun 05:23:17 PM 42.9417 -88.4075 43° Northeast 177 204 4,600 -480 Descending Chicago Center
Sun 05:24:19 PM 42.9689 -88.3472 58° Northeast 186 214 4,000 -290 Descending Chicago Center
Sun 05:25:21 PM 42.9956 -88.2903 57° Northeast 186 214 4,000  Level Chicago Center
Sun 05:26:24 PM 43.0186 -88.2369 59° Northeast 176 203 4,000 -242 Level Chicago Center
Sun 05:27:25 PM 43.0428 -88.1844 58° Northeast 169 194 3,500 -488 Descending Chicago Center
Sun 05:28:27 PM 43.0722 -88.1186 59° Northeast 169 194 3,000 -677 Descending Chicago Center
Sun 05:29:29 PM 43.0992 -88.0742 50° Northeast 162 186 2,100 -726 Descending Chicago Center
Sun 05:30:31 PM 43.0881 -88.0272 108° East 145 167 1,500 -581 Descending Chicago Center
Sun 05:32:00 PM 43.1000 -88.0333 61° Northeast  Level FlightAware Approximate

Login

Don't have an account? Register now (free) for customized features, flight alerts, and more!